Genesee, Michigan
Current Conditions -  °F | °C
As of 3:53 PM on Wednesday 26 Nov 2014 (Local Time) from KFNT Reporting Station
Overcast Overcast  
Wind Chill: 28°   Ceiling: 2900
Heat Index: 34°   Visibility: 10mi
Dew Point: 22°   Wind: 7mph
Humidity: 61%   Direction: 360°N
Pressure: 30.11"   Gusts: NA
Location:  43.11°N, 83.62°W
Report Text: KFNT 262053Z 36006KT 10SM BKN029 OVC041 01/M06 A3011 RMK AO2 SLP206 T00111056 55002
Loading
Personal Weather Stations






























Interactive Weather Map New forecast layout! Learn more

10-Day Weather Forecast

Advertisements
Track Severe Weather on mobile